Time;durP1;ratioP1;P1;durP2;ratioP2;P2;SDS_P1;SDS_P2;PMS_P1;PMS_P2;Temp;Humidity;BMP_temperature;BMP_pressure;BME280_temperature;BME280_humidity;BME280_pressure;Samples;Min_cycle;Max_cycle;Signal;HPM_P1;HPM_P2
2023/05/23 00:00:32;;;;;;;11.80;7.32;;;17.30;92.40;;;;;;5074187;28;20251;-72
2023/05/23 00:03:21;;;;;;;12.23;7.00;;;17.40;94.20;;;;;;5072950;28;20239;-72
2023/05/23 00:06:10;;;;;;;9.70;7.22;;;17.30;93.10;;;;;;5082777;28;20811;-73
2023/05/23 00:08:59;;;;;;;14.07;7.80;;;17.30;92.90;;;;;;5069290;28;20302;-72
2023/05/23 00:11:49;;;;;;;10.73;6.95;;;17.10;92.70;;;;;;5095779;27;20323;-72
2023/05/23 00:14:39;;;;;;;11.27;7.00;;;17.20;93.20;;;;;;5085252;28;20692;-71
2023/05/23 00:17:27;;;;;;;11.65;7.25;;;17.20;94.10;;;;;;5080448;28;20376;-70
2023/05/23 00:20:17;;;;;;;10.40;7.32;;;17.30;93.50;;;;;;5072967;28;20710;-72
2023/05/23 00:23:06;;;;;;;13.90;7.30;;;17.30;93.60;;;;;;5082355;28;20223;-74
2023/05/23 00:25:57;;;;;;;11.73;7.60;;;17.30;93.60;;;;;;5072475;28;20265;-73
2023/05/23 00:28:47;;;;;;;9.13;6.70;;;17.20;94.00;;;;;;5076593;28;20246;-73
2023/05/23 00:31:36;;;;;;;10.20;6.80;;;17.20;94.00;;;;;;5078066;28;20326;-73
2023/05/23 00:34:25;;;;;;;8.32;6.63;;;17.10;92.90;;;;;;5083433;28;20223;-72
2023/05/23 00:37:14;;;;;;;9.38;6.82;;;17.00;92.70;;;;;;5074974;28;20711;-72
2023/05/23 00:40:03;;;;;;;8.48;5.90;;;17.00;92.60;;;;;;5079179;28;20595;-72
2023/05/23 00:42:51;;;;;;;11.02;6.53;;;16.70;92.50;;;;;;5081753;28;20270;-73
2023/05/23 00:45:42;;;;;;;11.07;6.38;;;16.90;93.90;;;;;;5077636;28;20223;-72
2023/05/23 00:48:31;;;;;;;12.43;7.05;;;16.80;93.60;;;;;;5075542;28;20231;-72
2023/05/23 00:51:20;;;;;;;9.07;6.25;;;16.70;92.80;;;;;;5077726;28;20643;-73
2023/05/23 00:54:10;;;;;;;11.85;7.00;;;16.70;93.00;;;;;;5081390;28;20540;-72
2023/05/23 00:56:59;;;;;;;8.63;6.90;;;16.70;93.30;;;;;;5076209;28;20235;-72
2023/05/23 00:59:48;;;;;;;9.13;6.50;;;16.70;94.10;;;;;;5076982;28;20232;-73
2023/05/23 01:02:42;;;;;;;10.27;7.35;;;16.70;93.30;;;;;;5083018;28;20226;-72
2023/05/23 01:05:31;;;;;;;12.23;7.05;;;16.60;93.00;;;;;;5070596;28;20223;-72
2023/05/23 01:08:20;;;;;;;10.27;6.63;;;16.70;94.10;;;;;;5076879;28;20702;-73
2023/05/23 01:11:22;;;;;;;9.73;6.65;;;16.60;93.10;;;;;;5083278;28;20223;-74
2023/05/23 01:14:15;;;;;;;9.98;7.10;;;16.80;94.60;;;;;;5085387;28;20230;-72
2023/05/23 01:17:11;;;;;;;12.05;6.80;;;16.80;94.20;;;;;;5077907;28;20365;-73
2023/05/23 01:20:08;;;;;;;8.82;6.97;;;16.80;94.20;;;;;;5078680;28;20608;-71
2023/05/23 01:23:20;;;;;;;8.85;6.55;;;16.70;94.20;;;;;;5087862;28;20220;-70
2023/05/23 01:26:22;;;;;;;10.82;7.25;;;16.70;94.20;;;;;;5081216;28;20236;-72
2023/05/23 01:29:19;;;;;;;10.00;6.60;;;16.60;93.50;;;;;;5085059;28;20234;-73
2023/05/23 01:32:12;;;;;;;9.77;6.88;;;16.50;93.60;;;;;;5078357;28;20235;-72
2023/05/23 01:35:02;;;;;;;8.90;6.82;;;16.60;94.60;;;;;;5074213;28;20223;-73
2023/05/23 01:37:50;;;;;;;10.77;7.13;;;16.60;94.50;;;;;;5086800;28;20261;-73
2023/05/23 01:40:39;;;;;;;10.38;6.53;;;16.50;94.20;;;;;;5086775;28;20345;-72
2023/05/23 01:43:30;;;;;;;9.60;6.75;;;16.50;94.20;;;;;;5081267;28;20224;-72
2023/05/23 01:46:21;;;;;;;8.50;6.40;;;16.40;93.60;;;;;;5066976;28;20228;-73
2023/05/23 01:49:13;;;;;;;10.65;6.90;;;16.30;94.70;;;;;;5083449;28;20363;-72
2023/05/23 01:52:03;;;;;;;9.57;6.88;;;16.40;94.30;;;;;;5084878;28;20220;-76
2023/05/23 01:54:52;;;;;;;8.98;6.70;;;16.50;95.20;;;;;;5075430;28;20216;-72
2023/05/23 01:57:42;;;;;;;9.30;7.30;;;16.50;94.90;;;;;;5085729;28;20764;-72
2023/05/23 02:00:31;;;;;;;8.88;7.00;;;16.50;94.80;;;;;;5080102;28;20227;-73
2023/05/23 02:03:21;;;;;;;8.73;7.22;;;16.40;93.90;;;;;;5080285;28;20232;-72
2023/05/23 02:06:11;;;;;;;9.20;6.78;;;16.40;94.90;;;;;;5068883;28;20219;-73
2023/05/23 02:08:59;;;;;;;10.48;6.97;;;16.40;95.10;;;;;;5083122;28;20796;-73
2023/05/23 02:11:48;;;;;;;12.48;7.70;;;16.30;94.80;;;;;;5081421;28;20228;-72
2023/05/23 02:14:38;;;;;;;11.70;6.93;;;16.10;94.80;;;;;;5081808;28;20238;-72
2023/05/23 02:17:27;;;;;;;10.48;7.38;;;16.10;95.50;;;;;;5087040;28;20283;-72
2023/05/23 02:20:19;;;;;;;12.93;7.88;;;16.20;95.80;;;;;;5082829;28;20248;-70
2023/05/23 02:23:09;;;;;;;9.38;7.05;;;16.20;95.70;;;;;;5085169;28;20227;-72
2023/05/23 02:25:58;;;;;;;10.38;7.43;;;16.20;95.50;;;;;;5087303;28;20250;-71
2023/05/23 02:28:47;;;;;;;9.52;7.32;;;16.10;95.20;;;;;;5088357;28;20230;-70
2023/05/23 02:31:36;;;;;;;11.63;6.82;;;16.00;95.80;;;;;;5086712;28;20227;-72
2023/05/23 02:34:25;;;;;;;8.25;6.93;;;16.00;94.90;;;;;;5080971;28;20306;-72
2023/05/23 02:37:16;;;;;;;9.93;6.32;;;15.90;95.40;;;;;;5084203;28;20243;-72
2023/05/23 02:40:07;;;;;;;9.43;7.50;;;16.00;95.80;;;;;;5078283;28;20261;-72
2023/05/23 02:42:57;;;;;;;12.38;7.50;;;15.90;95.90;;;;;;5079667;28;20232;-72
2023/05/23 02:45:46;;;;;;;9.43;6.90;;;15.70;95.90;;;;;;5074086;28;20583;-73
2023/05/23 02:48:36;;;;;;;10.70;7.53;;;15.70;96.10;;;;;;5085866;28;20219;-73
2023/05/23 02:51:25;;;;;;;10.48;7.53;;;15.80;96.30;;;;;;5086523;28;20828;-73
2023/05/23 02:54:15;;;;;;;10.32;7.57;;;15.90;96.50;;;;;;5075951;28;20593;-72
2023/05/23 02:57:05;;;;;;;12.52;6.95;;;15.90;95.70;;;;;;5082774;28;20224;-73
2023/05/23 02:59:56;;;;;;;11.25;7.10;;;15.70;95.70;;;;;;5081072;28;20238;-74
2023/05/23 03:02:45;;;;;;;12.73;7.10;;;15.80;96.70;;;;;;5079902;28;20231;-73
2023/05/23 03:05:35;;;;;;;9.52;6.75;;;15.80;96.30;;;;;;5077506;28;20219;-73
2023/05/23 03:08:24;;;;;;;10.43;7.20;;;15.90;96.40;;;;;;5071345;28;20227;-72
2023/05/23 03:11:15;;;;;;;11.52;6.82;;;15.80;95.70;;;;;;5075270;28;20218;-73
2023/05/23 03:14:05;;;;;;;8.57;6.90;;;15.80;96.10;;;;;;5075363;28;20220;-74
2023/05/23 03:16:53;;;;;;;9.25;6.70;;;15.80;95.20;;;;;;5085028;28;20928;-73
2023/05/23 03:19:42;;;;;;;9.95;6.50;;;15.80;95.30;;;;;;5081582;28;20216;-73
2023/05/23 03:22:32;;;;;;;10.05;6.65;;;15.90;96.50;;;;;;5064423;28;20606;-72
2023/05/23 03:25:21;;;;;;;9.88;7.07;;;16.10;96.40;;;;;;5072078;28;20236;-73
2023/05/23 03:28:11;;;;;;;11.38;6.88;;;16.10;96.30;;;;;;5084111;28;20223;-73
2023/05/23 03:31:00;;;;;;;9.75;6.75;;;16.10;95.80;;;;;;5085192;28;20219;-72
2023/05/23 03:33:50;;;;;;;7.93;6.68;;;16.10;94.70;;;;;;5058134;28;20354;-72
2023/05/23 03:36:39;;;;;;;9.55;6.95;;;16.00;95.60;;;;;;5077750;28;20230;-73
2023/05/23 03:39:28;;;;;;;10.48;7.40;;;16.00;95.20;;;;;;5069744;28;20761;-73
2023/05/23 03:42:18;;;;;;;12.70;7.95;;;16.00;95.50;;;;;;5079071;28;20224;-72
2023/05/23 03:45:08;;;;;;;12.45;7.55;;;16.00;95.70;;;;;;5072559;28;20254;-73
2023/05/23 03:47:57;;;;;;;13.40;7.40;;;16.10;96.40;;;;;;5077045;28;20654;-71
2023/05/23 03:50:46;;;;;;;12.32;7.38;;;16.20;95.40;;;;;;5079278;28;20220;-72
2023/05/23 03:53:35;;;;;;;10.93;7.30;;;16.20;95.90;;;;;;5075559;28;20223;-73
2023/05/23 03:56:25;;;;;;;13.10;6.95;;;16.40;96.00;;;;;;5083470;28;20224;-72
2023/05/23 03:59:14;;;;;;;15.48;8.48;;;16.50;95.00;;;;;;5078896;28;20231;-73
2023/05/23 04:02:05;;;;;;;11.50;8.63;;;16.40;95.10;;;;;;5076839;28;20718;-74
2023/05/23 04:08:21;;;;;;;9.70;8.68;;;16.40;95.30;;;;;;5082508;28;20711;-75
2023/05/23 04:11:11;;;;;;;13.25;8.65;;;16.50;94.90;;;;;;5074368;28;20592;-74
2023/05/23 04:14:03;;;;;;;10.65;8.02;;;16.40;95.30;;;;;;5075106;28;20226;-73
2023/05/23 04:16:52;;;;;;;12.00;8.82;;;16.70;94.90;;;;;;5080404;28;20222;-72
2023/05/23 04:19:43;;;;;;;15.15;10.52;;;16.70;94.70;;;;;;5083537;28;20730;-73
2023/05/23 04:22:32;;;;;;;12.88;10.52;;;16.70;93.70;;;;;;5077744;28;20232;-73
2023/05/23 04:25:23;;;;;;;15.30;11.00;;;16.70;94.10;;;;;;5072177;28;20219;-73
2023/05/23 04:28:26;;;;;;;16.95;11.30;;;16.80;94.10;;;;;;5079726;28;20226;-72
2023/05/23 04:31:15;;;;;;;17.95;11.20;;;16.80;94.50;;;;;;5087540;28;20227;-71
2023/05/23 04:34:04;;;;;;;12.80;10.00;;;17.10;95.10;;;;;;5086124;28;20238;-72
2023/05/23 04:37:00;;;;;;;14.68;9.60;;;17.10;93.40;;;;;;5085120;28;20223;-73
2023/05/23 04:39:52;;;;;;;14.00;8.98;;;16.90;93.40;;;;;;5079082;28;20292;-74
2023/05/23 04:42:57;;;;;;;16.45;9.52;;;17.00;93.10;;;;;;5076954;28;20235;-74
2023/05/23 04:46:07;;;;;;;14.95;8.90;;;17.10;94.10;;;;;;5069673;28;20261;-74
2023/05/23 04:48:59;;;;;;;15.48;9.45;;;17.20;93.20;;;;;;5071736;28;20223;-73
2023/05/23 04:51:48;;;;;;;14.85;9.95;;;17.20;93.20;;;;;;5077345;28;20230;-72
2023/05/23 04:54:47;;;;;;;13.73;9.35;;;17.40;93.30;;;;;;5088955;28;20242;-74
2023/05/23 04:57:37;;;;;;;17.02;9.55;;;17.70;93.80;;;;;;5077697;28;20208;-73
2023/05/23 05:00:29;;;;;;;17.60;8.93;;;17.80;93.40;;;;;;5081759;28;20660;-73
2023/05/23 05:03:18;;;;;;;13.50;8.35;;;18.00;93.20;;;;;;5088439;28;20570;-73
2023/05/23 05:06:08;;;;;;;15.15;7.95;;;18.10;93.10;;;;;;5087438;28;20313;-74
2023/05/23 05:08:57;;;;;;;12.63;7.65;;;18.20;92.90;;;;;;5088445;28;20284;-71
2023/05/23 05:11:47;;;;;;;9.18;6.55;;;18.30;92.40;;;;;;5075532;28;20278;-71
2023/05/23 05:14:37;;;;;;;11.52;6.10;;;18.40;92.60;;;;;;5081756;28;20231;-73
2023/05/23 05:17:26;;;;;;;10.10;5.63;;;18.60;92.40;;;;;;5083723;28;20227;-71
2023/05/23 05:20:24;;;;;;;8.18;6.03;;;18.70;92.50;;;;;;5071283;28;20475;-72
2023/05/23 05:23:13;;;;;;;11.60;5.93;;;18.90;92.20;;;;;;5084410;28;20357;-73
2023/05/23 05:26:04;;;;;;;7.57;5.63;;;18.70;92.20;;;;;;5076385;28;20349;-73
2023/05/23 05:28:55;;;;;;;8.77;5.78;;;19.00;91.80;;;;;;5079388;28;20372;-71
2023/05/23 05:31:44;;;;;;;9.82;5.45;;;20.20;90.80;;;;;;5085163;28;20334;-72
2023/05/23 05:34:33;;;;;;;9.75;5.18;;;21.40;89.40;;;;;;5081686;28;20236;-75
2023/05/23 05:37:22;;;;;;;8.60;4.95;;;22.60;84.10;;;;;;5080123;28;20235;-72
2023/05/23 05:40:12;;;;;;;10.30;5.15;;;21.70;83.00;;;;;;5071245;28;20212;-71
2023/05/23 05:43:03;;;;;;;8.82;4.43;;;21.00;84.20;;;;;;5086817;28;20235;-72
2023/05/23 05:45:54;;;;;;;5.20;4.53;;;20.60;85.60;;;;;;5071462;28;20220;-73
2023/05/23 05:48:43;;;;;;;9.50;4.30;;;20.20;86.70;;;;;;5075082;28;20300;-72
2023/05/23 05:51:34;;;;;;;10.90;4.47;;;20.10;86.50;;;;;;5071268;28;20224;-72
2023/05/23 05:54:23;;;;;;;7.63;4.38;;;20.00;86.70;;;;;;5055991;28;20280;-73
2023/05/23 05:57:12;;;;;;;10.75;4.90;;;20.00;85.90;;;;;;5082434;28;20270;-73
2023/05/23 06:00:01;;;;;;;9.13;4.90;;;20.70;85.20;;;;;;5084462;28;20296;-72
2023/05/23 06:02:56;;;;;;;7.47;4.80;;;21.50;81.70;;;;;;5075417;28;20281;-74
2023/05/23 06:06:11;;;;;;;6.63;4.22;;;22.20;79.00;;;;;;5073318;28;20645;-74
2023/05/23 06:09:01;;;;;;;18.33;4.88;;;21.40;79.80;;;;;;5085861;28;20231;-72
2023/05/23 06:11:50;;;;;;;5.78;4.22;;;20.90;80.70;;;;;;5076974;28;20232;-73
2023/05/23 06:14:39;;;;;;;7.20;4.45;;;20.70;82.60;;;;;;5087655;28;20222;-72
2023/05/23 06:17:29;;;;;;;6.82;4.35;;;20.70;82.90;;;;;;5078837;28;20223;-72
2023/05/23 06:20:20;;;;;;;6.30;4.50;;;20.60;82.40;;;;;;5089243;28;20219;-72
2023/05/23 06:23:09;;;;;;;6.55;4.43;;;20.50;83.40;;;;;;5079918;28;20747;-73
2023/05/23 06:25:59;;;;;;;8.23;4.55;;;20.30;83.80;;;;;;5097043;28;20733;-73
2023/05/23 06:28:49;;;;;;;5.85;3.83;;;20.40;86.80;;;;;;5106086;27;20726;-74
2023/05/23 06:31:38;;;;;;;9.43;3.97;;;20.70;84.90;;;;;;5037181;28;20295;-71
2023/05/23 06:34:27;;;;;;;10.20;4.22;;;20.80;83.80;;;;;;5052000;28;21026;-72
2023/05/23 06:37:17;;;;;;;6.20;4.13;;;20.90;84.70;;;;;;5059578;28;20220;-72
2023/05/23 06:40:08;;;;;;;5.72;4.07;;;21.10;84.10;;;;;;5050521;28;20256;-72
2023/05/23 06:42:57;;;;;;;7.00;4.05;;;21.30;83.80;;;;;;5052673;28;20216;-73
2023/05/23 06:46:15;;;;;;;6.63;4.35;;;21.40;83.70;;;;;;5044433;28;20244;-73
2023/05/23 06:49:04;;;;;;;11.95;4.18;;;21.50;83.80;;;;;;5043461;28;20228;-73
2023/05/23 06:52:04;;;;;;;8.38;4.20;;;21.60;83.40;;;;;;5066653;28;20231;-74
2023/05/23 06:54:54;;;;;;;5.90;3.65;;;21.70;84.40;;;;;;5041349;28;20247;-73
2023/05/23 06:57:44;;;;;;;6.43;3.97;;;21.80;82.20;;;;;;5042970;28;20247;-73
2023/05/23 07:00:33;;;;;;;10.20;4.22;;;21.90;81.60;;;;;;5045174;28;20219;-73
2023/05/23 07:03:51;;;;;;;7.05;3.47;;;22.00;81.50;;;;;;5060721;28;20810;-72
2023/05/23 07:06:42;;;;;;;6.65;3.42;;;22.20;80.60;;;;;;5049480;28;20282;-74
2023/05/23 07:09:31;;;;;;;6.88;3.63;;;22.20;78.60;;;;;;5050010;28;20224;-73
2023/05/23 07:12:30;;;;;;;5.53;3.20;;;22.40;79.00;;;;;;5043911;28;20220;-73
2023/05/23 07:15:22;;;;;;;5.00;3.38;;;22.70;78.90;;;;;;5067778;28;20220;-72
2023/05/23 07:18:28;;;;;;;6.40;3.28;;;22.90;78.10;;;;;;5065852;28;20285;-72
2023/05/23 07:21:18;;;;;;;7.18;3.50;;;23.30;76.60;;;;;;5045408;28;20227;-72
2023/05/23 07:24:08;;;;;;;10.95;3.35;;;23.60;75.20;;;;;;5043209;28;20915;-74
2023/05/23 07:26:56;;;;;;;6.95;3.30;;;23.70;74.40;;;;;;5041809;28;20703;-74
2023/05/23 07:29:49;;;;;;;5.13;3.38;;;23.80;73.10;;;;;;5079418;28;20220;-73
2023/05/23 07:32:38;;;;;;;4.05;3.30;;;24.30;73.20;;;;;;5049807;28;20223;-73
2023/05/23 07:35:29;;;;;;;4.25;3.13;;;24.80;70.80;;;;;;5041380;28;20225;-73
2023/05/23 07:38:20;;;;;;;7.22;3.63;;;24.90;68.10;;;;;;5049241;28;20223;-73
2023/05/23 07:41:09;;;;;;;4.00;3.05;;;25.20;68.40;;;;;;5081913;28;20231;-72
2023/05/23 07:44:01;;;;;;;5.20;3.60;;;25.40;67.60;;;;;;5071334;28;20277;-74
2023/05/23 07:46:51;;;;;;;5.82;3.70;;;26.00;68.30;;;;;;5085419;28;20227;-74
2023/05/23 07:49:40;;;;;;;5.60;3.40;;;26.20;66.10;;;;;;5084382;28;20219;-73
2023/05/23 07:52:30;;;;;;;4.07;3.42;;;26.90;66.50;;;;;;5067647;28;21059;-72
2023/05/23 07:55:21;;;;;;;7.85;3.75;;;27.40;68.40;;;;;;5083137;28;20215;-73
2023/05/23 07:58:10;;;;;;;5.32;3.67;;;27.50;66.50;;;;;;5079531;28;20228;-71
2023/05/23 08:00:59;;;;;;;5.40;3.35;;;27.60;63.30;;;;;;5083716;28;20343;-71
2023/05/23 08:04:13;;;;;;;5.25;3.80;;;27.80;64.60;;;;;;5080978;28;20235;-74
2023/05/23 08:07:11;;;;;;;6.95;3.65;;;28.10;63.70;;;;;;5083994;28;20714;-74
2023/05/23 08:10:09;;;;;;;5.68;3.78;;;27.80;62.50;;;;;;5074072;28;20273;-71
2023/05/23 08:13:05;;;;;;;7.53;3.60;;;28.20;65.00;;;;;;5083907;28;20747;-73
2023/05/23 08:15:59;;;;;;;6.38;3.70;;;28.40;61.20;;;;;;5069494;28;20247;-72
2023/05/23 08:18:50;;;;;;;6.97;3.50;;;28.30;60.10;;;;;;5064208;28;20239;-74
2023/05/23 08:21:41;;;;;;;4.60;3.45;;;28.20;59.30;;;;;;5069725;28;20306;-72
2023/05/23 08:24:30;;;;;;;8.18;3.85;;;28.30;62.70;;;;;;5076463;28;20836;-73
2023/05/23 08:27:19;;;;;;;5.70;3.70;;;28.20;58.50;;;;;;5082371;28;20216;-75
2023/05/23 08:30:14;;;;;;;5.22;3.70;;;28.00;60.20;;;;;;5086916;28;20211;-74
2023/05/23 08:33:05;;;;;;;6.63;3.20;;;28.50;60.10;;;;;;5068874;28;20239;-73
2023/05/23 08:35:56;;;;;;;5.05;3.53;;;28.80;60.30;;;;;;5074081;28;20224;-72
2023/05/23 08:38:46;;;;;;;10.02;4.05;;;28.90;58.40;;;;;;5074698;28;20219;-74
2023/05/23 08:41:42;;;;;;;4.55;3.25;;;29.10;62.50;;;;;;5079829;28;20265;-73
2023/05/23 08:44:33;;;;;;;6.50;3.83;;;29.10;58.60;;;;;;5105940;27;20314;-73
2023/05/23 08:47:23;;;;;;;8.57;3.47;;;29.60;58.10;;;;;;5071324;28;20230;-74
2023/05/23 08:50:17;;;;;;;7.25;3.60;;;29.50;59.00;;;;;;5070152;28;20220;-75
2023/05/23 08:53:19;;;;;;;6.82;3.40;;;29.80;59.30;;;;;;5066243;28;20220;-77
2023/05/23 08:56:13;;;;;;;6.05;3.17;;;30.00;57.60;;;;;;5086898;28;20686;-75
2023/05/23 08:59:07;;;;;;;5.35;3.20;;;29.20;57.00;;;;;;5075300;28;20220;-75
2023/05/23 09:01:56;;;;;;;7.32;3.47;;;29.20;57.00;;;;;;5085875;28;20256;-72
2023/05/23 09:04:46;;;;;;;6.13;3.22;;;29.80;58.50;;;;;;5077437;28;20231;-73
2023/05/23 09:07:39;;;;;;;6.20;3.33;;;30.40;57.00;;;;;;5072515;28;20219;-73
2023/05/23 09:10:28;;;;;;;4.18;3.47;;;30.40;57.90;;;;;;5075105;28;20222;-75
2023/05/23 09:13:21;;;;;;;3.88;3.33;;;30.90;57.00;;;;;;5080312;28;20230;-75
2023/05/23 09:16:16;;;;;;;4.70;2.85;;;30.20;54.50;;;;;;5077865;28;20254;-76
2023/05/23 09:19:16;;;;;;;4.10;2.78;;;30.20;56.80;;;;;;5073853;28;20238;-74
2023/05/23 09:22:13;;;;;;;3.22;2.90;;;30.30;54.70;;;;;;5078267;28;20226;-75
2023/05/23 09:25:18;;;;;;;6.20;3.15;;;31.10;53.40;;;;;;5071707;28;20219;-74
2023/05/23 09:28:09;;;;;;;5.90;2.95;;;31.30;52.70;;;;;;5080460;28;20774;-75
2023/05/23 09:31:02;;;;;;;7.65;2.90;;;32.20;51.20;;;;;;5077864;28;20223;-74
2023/05/23 09:33:51;;;;;;;8.57;3.13;;;32.10;51.40;;;;;;5076139;28;21064;-74
2023/05/23 09:36:42;;;;;;;6.13;2.75;;;31.80;51.70;;;;;;5075202;28;20256;-75
2023/05/23 09:39:36;;;;;;;4.35;3.10;;;31.00;51.50;;;;;;5080966;28;20226;-75
2023/05/23 09:42:31;;;;;;;4.65;2.97;;;31.40;52.60;;;;;;5078836;28;20230;-74
2023/05/23 09:45:20;;;;;;;6.53;2.90;;;32.10;50.50;;;;;;5075400;28;20223;-72
2023/05/23 09:48:13;;;;;;;8.38;3.10;;;32.40;50.60;;;;;;5077947;28;20219;-73
2023/05/23 09:51:05;;;;;;;3.65;3.30;;;33.10;48.90;;;;;;5078271;28;20650;-73
2023/05/23 09:53:55;;;;;;;3.45;2.92;;;34.40;49.30;;;;;;5083817;28;20222;-72
2023/05/23 09:56:45;;;;;;;5.35;2.80;;;35.00;49.60;;;;;;5084362;28;20230;-74
2023/05/23 09:59:38;;;;;;;7.30;3.00;;;35.20;48.60;;;;;;5080644;28;20293;-73
2023/05/23 10:02:53;;;;;;;7.20;2.85;;;35.60;45.80;;;;;;5067120;28;20239;-73
2023/05/23 10:05:46;;;;;;;7.97;3.67;;;34.50;46.70;;;;;;5072711;28;20231;-74
2023/05/23 10:08:39;;;;;;;4.63;2.85;;;35.60;44.70;;;;;;5079648;28;20571;-75
2023/05/23 10:12:03;;;;;;;7.45;2.78;;;34.40;45.30;;;;;;5073159;28;20266;-74
2023/05/23 10:14:57;;;;;;;3.13;2.80;;;35.10;46.50;;;;;;5084084;28;20290;-75
2023/05/23 10:18:02;;;;;;;7.90;3.22;;;34.10;44.90;;;;;;5085407;28;20222;-73
2023/05/23 10:20:57;;;;;;;4.90;2.90;;;33.70;45.60;;;;;;5083164;28;20305;-73
2023/05/23 10:23:47;;;;;;;5.78;3.20;;;32.80;46.20;;;;;;5086278;28;20218;-73
2023/05/23 10:26:37;;;;;;;3.85;2.88;;;35.60;49.50;;;;;;5084604;28;20223;-73
2023/05/23 10:29:26;;;;;;;4.35;3.00;;;37.60;44.00;;;;;;5082984;28;20542;-72
2023/05/23 10:32:16;;;;;;;4.15;3.10;;;37.60;43.10;;;;;;5079599;28;20219;-73
2023/05/23 10:35:12;;;;;;;5.05;3.00;;;35.30;43.30;;;;;;5085990;28;20365;-73
2023/05/23 10:38:11;;;;;;;4.97;2.63;;;35.10;45.90;;;;;;5076953;28;20303;-72
2023/05/23 10:41:10;;;;;;;6.68;3.13;;;35.50;44.90;;;;;;5089642;28;20230;-73
2023/05/23 10:44:09;;;;;;;8.73;2.90;;;36.60;43.90;;;;;;5087561;28;20997;-73
2023/05/23 10:47:00;;;;;;;6.45;3.00;;;36.40;45.40;;;;;;5079640;28;20720;-71
2023/05/23 10:49:53;;;;;;;6.68;3.28;;;34.90;44.20;;;;;;5092339;28;20219;-73
2023/05/23 10:52:43;;;;;;;6.22;2.90;;;36.30;45.80;;;;;;5087064;28;20693;-74
2023/05/23 10:55:35;;;;;;;5.10;2.72;;;38.60;42.80;;;;;;5085887;28;20227;-74
2023/05/23 10:58:24;;;;;;;6.18;3.22;;;39.10;41.60;;;;;;5081503;28;20295;-73
2023/05/23 11:01:16;;;;;;;5.43;2.85;;;39.50;40.80;;;;;;5101511;28;20221;-73
2023/05/23 11:04:06;;;;;;;6.50;3.13;;;40.50;41.10;;;;;;5078048;28;20222;-73
2023/05/23 11:06:55;;;;;;;7.85;2.78;;;41.80;42.60;;;;;;5082509;28;20322;-74
2023/05/23 11:10:10;;;;;;;5.68;3.28;;;41.00;39.50;;;;;;5071118;28;20223;-74
2023/05/23 11:13:07;;;;;;;5.07;2.30;;;40.20;42.20;;;;;;5074568;28;20705;-75
2023/05/23 11:15:56;;;;;;;4.28;2.80;;;41.60;40.70;;;;;;5104174;27;20280;-73
2023/05/23 11:18:45;;;;;;;5.40;2.80;;;41.10;38.60;;;;;;5082995;28;20219;-74
2023/05/23 11:21:34;;;;;;;4.18;3.25;;;39.10;40.80;;;;;;5079863;28;20240;-74
2023/05/23 11:24:23;;;;;;;4.88;2.60;;;37.40;42.10;;;;;;5068557;28;20235;-73
2023/05/23 11:27:13;;;;;;;11.18;2.80;;;37.70;41.90;;;;;;5073553;28;20223;-72
2023/05/23 11:30:06;;;;;;;6.32;2.88;;;37.70;42.10;;;;;;5079201;28;20616;-74
2023/05/23 11:32:55;;;;;;;8.07;3.05;;;38.60;42.10;;;;;;5080651;28;20301;-74
2023/05/23 11:35:46;;;;;;;3.97;2.67;;;39.00;40.50;;;;;;5071399;28;20219;-75
2023/05/23 11:38:37;;;;;;;6.60;2.78;;;38.70;39.40;;;;;;5082533;28;20630;-74
2023/05/23 11:41:27;;;;;;;5.40;3.20;;;41.40;39.20;;;;;;5068418;28;20726;-74
2023/05/23 11:44:17;;;;;;;3.58;2.55;;;43.30;38.70;;;;;;5083134;28;20243;-73
2023/05/23 11:47:07;;;;;;;6.75;3.17;;;45.00;36.80;;;;;;5077426;28;20276;-74
2023/05/23 11:49:56;;;;;;;5.32;2.80;;;45.60;36.50;;;;;;5070174;28;20591;-73
2023/05/23 11:52:50;;;;;;;2.70;2.47;;;46.70;35.40;;;;;;5075961;28;20241;-75
2023/05/23 11:55:40;;;;;;;9.27;2.55;;;44.70;35.70;;;;;;5082903;28;20298;-74
2023/05/23 11:58:31;;;;;;;3.78;2.60;;;43.90;34.10;;;;;;5078369;28;20253;-73
2023/05/23 12:01:20;;;;;;;15.27;3.00;;;45.30;36.70;;;;;;5083901;28;20296;-74
2023/05/23 12:04:12;;;;;;;7.25;3.00;;;45.60;35.50;;;;;;5099699;27;20223;-74
2023/05/23 12:07:06;;;;;;;3.38;2.67;;;45.50;35.40;;;;;;5082374;28;20306;-74
2023/05/23 12:09:56;;;;;;;3.53;2.80;;;44.40;33.50;;;;;;5066787;28;20558;-74
2023/05/23 12:12:45;;;;;;;4.32;2.30;;;44.60;33.60;;;;;;5077971;28;20222;-73
2023/05/23 12:15:34;;;;;;;3.85;2.67;;;44.50;32.70;;;;;;5082624;28;20222;-74
2023/05/23 12:18:23;;;;;;;3.67;2.50;;;45.90;35.20;;;;;;5081621;28;20218;-75
2023/05/23 12:21:14;;;;;;;3.05;2.42;;;47.10;34.00;;;;;;5082456;28;20340;-71
2023/05/23 12:24:15;;;;;;;5.38;2.60;;;48.30;33.00;;;;;;5078470;28;20340;-74
2023/05/23 12:27:04;;;;;;;4.90;2.40;;;47.20;31.40;;;;;;5074991;28;20223;-73
2023/05/23 12:30:06;;;;;;;2.75;2.47;;;43.40;33.40;;;;;;5073060;28;20227;-74
2023/05/23 12:32:55;;;;;;;5.65;2.88;;;40.60;34.00;;;;;;5050752;28;20229;-73
2023/05/23 12:35:44;;;;;;;3.58;2.72;;;37.80;35.90;;;;;;5068085;28;20752;-71
2023/05/23 12:38:37;;;;;;;3.17;2.72;;;36.20;38.30;;;;;;5083423;28;20230;-75
2023/05/23 12:41:27;;;;;;;5.18;3.17;;;36.50;39.20;;;;;;5081802;28;20233;-74
2023/05/23 12:44:16;;;;;;;5.85;2.90;;;35.20;39.00;;;;;;5082459;28;20238;-73
2023/05/23 12:47:05;;;;;;;6.35;3.60;;;33.40;41.60;;;;;;5073832;28;20703;-73
2023/05/23 12:49:54;;;;;;;6.15;3.25;;;;;;;;;;5075816;28;20214;-74
2023/05/23 12:52:43;;;;;;;5.60;3.33;;;31.80;43.60;;;;;;5074534;28;20225;-73
2023/05/23 12:55:34;;;;;;;4.28;3.35;;;30.90;44.10;;;;;;5084957;28;20219;-73
2023/05/23 12:58:23;;;;;;;5.63;3.58;;;30.00;45.00;;;;;;5083844;28;20276;-73
2023/05/23 13:01:12;;;;;;;3.47;3.17;;;29.60;46.50;;;;;;5099351;28;20215;-74
2023/05/23 13:04:02;;;;;;;5.07;3.67;;;29.30;47.20;;;;;;5070681;28;20215;-73
2023/05/23 13:06:51;;;;;;;4.43;3.65;;;29.60;47.50;;;;;;5074355;28;20222;-74
2023/05/23 13:09:40;;;;;;;4.78;3.70;;;29.30;46.70;;;;;;5068485;28;20369;-73
2023/05/23 13:12:31;;;;;;;8.55;3.65;;;29.30;48.90;;;;;;5085655;28;20882;-74
2023/05/23 13:15:20;;;;;;;5.75;3.60;;;29.10;48.20;;;;;;5087145;28;20238;-73
2023/05/23 13:18:09;;;;;;;23.48;4.20;;;29.10;47.80;;;;;;5081897;28;20219;-74
2023/05/23 13:20:58;;;;;;;7.85;3.72;;;28.80;48.10;;;;;;5086935;28;20859;-73
2023/05/23 13:23:47;;;;;;;7.63;4.05;;;28.50;49.00;;;;;;5083913;28;20223;-74
2023/05/23 13:26:36;;;;;;;7.53;3.85;;;28.30;49.50;;;;;;5077980;28;20234;-73
2023/05/23 13:29:26;;;;;;;5.35;3.88;;;27.90;49.60;;;;;;5074050;28;20695;-73
2023/05/23 13:32:15;;;;;;;4.55;3.58;;;27.70;50.60;;;;;;5109211;27;21070;-73
2023/05/23 13:35:05;;;;;;;7.82;3.70;;;27.50;50.90;;;;;;5087699;28;20215;-73
2023/05/23 13:37:54;;;;;;;7.43;3.70;;;27.30;50.20;;;;;;5087092;28;20242;-73
2023/05/23 13:40:43;;;;;;;5.22;3.90;;;27.20;52.40;;;;;;5082356;28;20226;-73
2023/05/23 13:43:32;;;;;;;5.43;3.78;;;27.20;51.30;;;;;;5085236;28;20850;-73
2023/05/23 13:46:22;;;;;;;6.10;4.03;;;27.20;50.70;;;;;;5074373;28;20223;-73
2023/05/23 13:49:11;;;;;;;8.40;3.83;;;26.90;51.40;;;;;;5082104;28;20219;-73
2023/05/23 13:52:01;;;;;;;4.95;3.85;;;27.00;51.10;;;;;;5084805;28;20276;-73
2023/05/23 13:54:50;;;;;;;7.38;4.18;;;26.90;51.40;;;;;;5067560;28;20220;-73
2023/05/23 13:57:39;;;;;;;7.35;3.70;;;27.00;51.30;;;;;;5081641;28;20218;-72
2023/05/23 14:00:28;;;;;;;9.02;3.90;;;26.90;51.80;;;;;;5086260;28;20223;-73
2023/05/23 14:03:19;;;;;;;5.10;4.20;;;26.80;52.30;;;;;;5077437;28;20731;-73
2023/05/23 14:06:07;;;;;;;5.78;3.90;;;26.90;52.00;;;;;;5084579;28;20230;-73
2023/05/23 14:08:56;;;;;;;6.25;3.95;;;26.90;51.80;;;;;;5089700;28;20713;-72
2023/05/23 14:11:47;;;;;;;5.60;3.90;;;27.00;52.10;;;;;;5082120;28;20228;-73
2023/05/23 14:14:36;;;;;;;7.03;4.60;;;26.80;52.10;;;;;;5080471;28;20235;-73
2023/05/23 14:17:24;;;;;;;7.28;3.83;;;26.80;52.50;;;;;;5085020;28;20215;-72
2023/05/23 14:20:15;;;;;;;7.78;4.28;;;26.60;52.70;;;;;;5084738;28;20339;-75
2023/05/23 14:23:04;;;;;;;7.28;3.97;;;26.40;53.30;;;;;;5086074;28;20238;-72
2023/05/23 14:25:52;;;;;;;8.00;3.92;;;26.30;53.50;;;;;;5076058;28;20223;-74
2023/05/23 14:28:41;;;;;;;4.68;3.72;;;26.20;53.20;;;;;;5068565;28;20264;-74
2023/05/23 14:31:32;;;;;;;5.00;4.10;;;26.10;52.60;;;;;;5076971;28;20246;-74
2023/05/23 14:34:21;;;;;;;8.10;4.43;;;26.20;54.10;;;;;;5084893;28;20765;-74
2023/05/23 14:37:11;;;;;;;6.32;4.30;;;26.10;52.30;;;;;;5081922;28;20223;-74
2023/05/23 14:40:00;;;;;;;6.20;4.63;;;25.80;52.80;;;;;;5083405;28;20219;-74
2023/05/23 14:42:49;;;;;;;5.13;4.00;;;26.00;53.70;;;;;;5083864;28;20226;-74
2023/05/23 14:45:38;;;;;;;8.60;4.40;;;26.00;52.90;;;;;;5082023;28;20227;-73
2023/05/23 14:48:27;;;;;;;5.13;4.63;;;26.00;53.00;;;;;;5077584;28;20594;-73
2023/05/23 14:51:16;;;;;;;5.97;4.22;;;25.90;52.70;;;;;;5086049;28;20825;-73